sensor_id;sensor_type;location;lat;lon;timestamp;P1;durP1;ratioP1;P2;durP2;ratioP2
63008;SDS011;49099;28.428;-16.488;2023-06-26T00:01:33;9.48;;;2.78;;
63008;SDS011;49099;28.428;-16.488;2023-06-26T00:04:00;6.80;;;2.88;;
63008;SDS011;49099;28.428;-16.488;2023-06-26T00:06:28;6.40;;;2.70;;
63008;SDS011;49099;28.428;-16.488;2023-06-26T00:08:55;5.35;;;2.25;;
63008;SDS011;49099;28.428;-16.488;2023-06-26T00:11:28;10.70;;;2.80;;
63008;SDS011;49099;28.428;-16.488;2023-06-26T00:14:00;5.95;;;2.90;;
63008;SDS011;49099;28.428;-16.488;2023-06-26T00:16:28;6.28;;;2.65;;
63008;SDS011;49099;28.428;-16.488;2023-06-26T00:18:55;5.85;;;2.53;;
63008;SDS011;49099;28.428;-16.488;2023-06-26T00:21:22;4.78;;;2.30;;
63008;SDS011;49099;28.428;-16.488;2023-06-26T00:23:49;8.70;;;2.60;;
63008;SDS011;49099;28.428;-16.488;2023-06-26T00:26:17;7.03;;;2.50;;
63008;SDS011;49099;28.428;-16.488;2023-06-26T00:28:44;9.18;;;2.33;;
63008;SDS011;49099;28.428;-16.488;2023-06-26T00:31:11;5.57;;;2.30;;
63008;SDS011;49099;28.428;-16.488;2023-06-26T00:33:38;4.68;;;2.20;;
63008;SDS011;49099;28.428;-16.488;2023-06-26T00:36:05;9.07;;;2.50;;
63008;SDS011;49099;28.428;-16.488;2023-06-26T00:38:33;5.10;;;2.40;;
63008;SDS011;49099;28.428;-16.488;2023-06-26T00:41:00;6.15;;;2.42;;
63008;SDS011;49099;28.428;-16.488;2023-06-26T00:43:27;6.32;;;2.50;;
63008;SDS011;49099;28.428;-16.488;2023-06-26T00:45:54;4.53;;;2.13;;
63008;SDS011;49099;28.428;-16.488;2023-06-26T00:48:21;7.05;;;2.55;;
63008;SDS011;49099;28.428;-16.488;2023-06-26T00:50:49;8.32;;;2.60;;
63008;SDS011;49099;28.428;-16.488;2023-06-26T00:53:16;6.85;;;2.50;;
63008;SDS011;49099;28.428;-16.488;2023-06-26T00:55:43;5.63;;;2.45;;
63008;SDS011;49099;28.428;-16.488;2023-06-26T00:58:11;9.13;;;2.42;;
63008;SDS011;49099;28.428;-16.488;2023-06-26T01:00:38;7.22;;;2.72;;
63008;SDS011;49099;28.428;-16.488;2023-06-26T01:03:06;7.05;;;2.40;;
63008;SDS011;49099;28.428;-16.488;2023-06-26T01:05:33;7.80;;;2.80;;
63008;SDS011;49099;28.428;-16.488;2023-06-26T01:08:01;9.27;;;2.70;;
63008;SDS011;49099;28.428;-16.488;2023-06-26T01:10:30;9.57;;;2.78;;
63008;SDS011;49099;28.428;-16.488;2023-06-26T01:12:57;7.47;;;2.70;;
63008;SDS011;49099;28.428;-16.488;2023-06-26T01:15:25;8.70;;;2.97;;
63008;SDS011;49099;28.428;-16.488;2023-06-26T01:17:52;10.57;;;3.08;;
63008;SDS011;49099;28.428;-16.488;2023-06-26T01:20:20;9.40;;;2.58;;
63008;SDS011;49099;28.428;-16.488;2023-06-26T01:22:50;8.45;;;2.72;;
63008;SDS011;49099;28.428;-16.488;2023-06-26T01:28:09;6.25;;;2.50;;
63008;SDS011;49099;28.428;-16.488;2023-06-26T01:30:39;11.93;;;3.00;;
63008;SDS011;49099;28.428;-16.488;2023-06-26T01:33:09;5.65;;;2.65;;
63008;SDS011;49099;28.428;-16.488;2023-06-26T01:35:37;8.70;;;2.85;;
63008;SDS011;49099;28.428;-16.488;2023-06-26T01:38:18;7.40;;;2.97;;
63008;SDS011;49099;28.428;-16.488;2023-06-26T01:40:47;8.32;;;2.80;;
63008;SDS011;49099;28.428;-16.488;2023-06-26T01:48:59;7.68;;;2.78;;
63008;SDS011;49099;28.428;-16.488;2023-06-26T01:51:55;7.57;;;3.00;;
63008;SDS011;49099;28.428;-16.488;2023-06-26T01:54:30;8.20;;;2.80;;
63008;SDS011;49099;28.428;-16.488;2023-06-26T01:57:02;10.43;;;3.33;;
63008;SDS011;49099;28.428;-16.488;2023-06-26T01:59:30;8.65;;;3.00;;
63008;SDS011;49099;28.428;-16.488;2023-06-26T02:02:00;7.28;;;2.83;;
63008;SDS011;49099;28.428;-16.488;2023-06-26T02:04:28;8.52;;;2.97;;
63008;SDS011;49099;28.428;-16.488;2023-06-26T02:06:56;8.57;;;2.80;;
63008;SDS011;49099;28.428;-16.488;2023-06-26T02:09:23;8.90;;;3.35;;
63008;SDS011;49099;28.428;-16.488;2023-06-26T02:11:50;9.45;;;3.40;;
63008;SDS011;49099;28.428;-16.488;2023-06-26T02:14:17;10.25;;;3.50;;
63008;SDS011;49099;28.428;-16.488;2023-06-26T02:16:44;8.50;;;3.10;;
63008;SDS011;49099;28.428;-16.488;2023-06-26T02:19:11;9.85;;;3.20;;
63008;SDS011;49099;28.428;-16.488;2023-06-26T02:21:38;8.75;;;3.10;;
63008;SDS011;49099;28.428;-16.488;2023-06-26T02:24:05;8.60;;;3.10;;
63008;SDS011;49099;28.428;-16.488;2023-06-26T02:26:33;9.98;;;2.85;;
63008;SDS011;49099;28.428;-16.488;2023-06-26T02:29:00;7.30;;;3.13;;
63008;SDS011;49099;28.428;-16.488;2023-06-26T02:31:27;10.68;;;3.03;;
63008;SDS011;49099;28.428;-16.488;2023-06-26T02:33:54;9.32;;;3.10;;
63008;SDS011;49099;28.428;-16.488;2023-06-26T02:36:21;13.00;;;3.17;;
63008;SDS011;49099;28.428;-16.488;2023-06-26T02:38:48;9.60;;;3.03;;
63008;SDS011;49099;28.428;-16.488;2023-06-26T02:41:15;13.75;;;3.47;;
63008;SDS011;49099;28.428;-16.488;2023-06-26T02:43:43;8.98;;;3.10;;
63008;SDS011;49099;28.428;-16.488;2023-06-26T02:46:10;6.80;;;2.85;;
63008;SDS011;49099;28.428;-16.488;2023-06-26T02:48:37;7.75;;;2.83;;
63008;SDS011;49099;28.428;-16.488;2023-06-26T02:51:04;11.45;;;3.40;;
63008;SDS011;49099;28.428;-16.488;2023-06-26T02:53:31;10.70;;;3.10;;
63008;SDS011;49099;28.428;-16.488;2023-06-26T02:55:59;7.70;;;3.22;;
63008;SDS011;49099;28.428;-16.488;2023-06-26T02:58:26;9.27;;;3.25;;
63008;SDS011;49099;28.428;-16.488;2023-06-26T03:00:53;10.27;;;3.28;;
63008;SDS011;49099;28.428;-16.488;2023-06-26T03:03:20;7.72;;;3.05;;
63008;SDS011;49099;28.428;-16.488;2023-06-26T03:05:47;9.38;;;3.20;;
63008;SDS011;49099;28.428;-16.488;2023-06-26T03:08:15;8.63;;;3.05;;
63008;SDS011;49099;28.428;-16.488;2023-06-26T03:10:43;8.40;;;3.20;;
63008;SDS011;49099;28.428;-16.488;2023-06-26T03:13:10;9.45;;;3.08;;
63008;SDS011;49099;28.428;-16.488;2023-06-26T03:15:37;12.43;;;3.33;;
63008;SDS011;49099;28.428;-16.488;2023-06-26T03:18:04;11.20;;;3.35;;
63008;SDS011;49099;28.428;-16.488;2023-06-26T03:20:31;10.20;;;3.10;;
63008;SDS011;49099;28.428;-16.488;2023-06-26T03:22:58;11.73;;;3.65;;
63008;SDS011;49099;28.428;-16.488;2023-06-26T03:25:25;11.60;;;3.47;;
63008;SDS011;49099;28.428;-16.488;2023-06-26T03:27:52;12.40;;;3.45;;
63008;SDS011;49099;28.428;-16.488;2023-06-26T03:30:20;21.08;;;3.85;;
63008;SDS011;49099;28.428;-16.488;2023-06-26T03:32:47;12.23;;;3.58;;
63008;SDS011;49099;28.428;-16.488;2023-06-26T03:35:14;12.80;;;3.60;;
63008;SDS011;49099;28.428;-16.488;2023-06-26T03:37:41;13.75;;;3.95;;
63008;SDS011;49099;28.428;-16.488;2023-06-26T03:40:09;13.32;;;3.70;;
63008;SDS011;49099;28.428;-16.488;2023-06-26T03:42:36;11.90;;;3.42;;
63008;SDS011;49099;28.428;-16.488;2023-06-26T03:45:03;14.05;;;3.80;;
63008;SDS011;49099;28.428;-16.488;2023-06-26T03:47:31;13.88;;;4.03;;
63008;SDS011;49099;28.428;-16.488;2023-06-26T03:49:58;13.02;;;3.72;;
63008;SDS011;49099;28.428;-16.488;2023-06-26T03:52:25;15.60;;;4.03;;
63008;SDS011;49099;28.428;-16.488;2023-06-26T03:54:52;13.07;;;3.70;;
63008;SDS011;49099;28.428;-16.488;2023-06-26T03:57:19;18.95;;;4.45;;
63008;SDS011;49099;28.428;-16.488;2023-06-26T03:59:46;13.68;;;3.88;;
63008;SDS011;49099;28.428;-16.488;2023-06-26T04:02:13;14.45;;;3.83;;
63008;SDS011;49099;28.428;-16.488;2023-06-26T04:04:41;14.15;;;3.45;;
63008;SDS011;49099;28.428;-16.488;2023-06-26T04:07:08;14.65;;;3.97;;
63008;SDS011;49099;28.428;-16.488;2023-06-26T04:09:35;12.88;;;3.90;;
63008;SDS011;49099;28.428;-16.488;2023-06-26T04:12:03;15.75;;;4.25;;
63008;SDS011;49099;28.428;-16.488;2023-06-26T04:14:30;15.68;;;3.90;;
63008;SDS011;49099;28.428;-16.488;2023-06-26T04:16:57;11.45;;;3.50;;
63008;SDS011;49099;28.428;-16.488;2023-06-26T04:19:28;14.77;;;3.78;;
63008;SDS011;49099;28.428;-16.488;2023-06-26T04:21:56;14.70;;;3.80;;
63008;SDS011;49099;28.428;-16.488;2023-06-26T04:24:24;14.18;;;4.30;;
63008;SDS011;49099;28.428;-16.488;2023-06-26T04:26:51;11.55;;;4.00;;
63008;SDS011;49099;28.428;-16.488;2023-06-26T04:29:18;15.48;;;3.97;;
63008;SDS011;49099;28.428;-16.488;2023-06-26T04:31:46;13.05;;;4.38;;
63008;SDS011;49099;28.428;-16.488;2023-06-26T04:34:13;15.52;;;4.00;;
63008;SDS011;49099;28.428;-16.488;2023-06-26T04:36:40;13.05;;;4.15;;
63008;SDS011;49099;28.428;-16.488;2023-06-26T04:39:08;14.88;;;4.07;;
63008;SDS011;49099;28.428;-16.488;2023-06-26T04:41:35;14.90;;;4.28;;
63008;SDS011;49099;28.428;-16.488;2023-06-26T04:44:02;14.38;;;3.95;;
63008;SDS011;49099;28.428;-16.488;2023-06-26T04:46:29;17.33;;;4.20;;
63008;SDS011;49099;28.428;-16.488;2023-06-26T04:48:56;12.98;;;3.90;;
63008;SDS011;49099;28.428;-16.488;2023-06-26T04:51:25;14.82;;;4.57;;
63008;SDS011;49099;28.428;-16.488;2023-06-26T04:53:53;13.35;;;3.60;;
63008;SDS011;49099;28.428;-16.488;2023-06-26T04:56:20;12.02;;;3.70;;
63008;SDS011;49099;28.428;-16.488;2023-06-26T04:58:48;11.70;;;3.70;;
63008;SDS011;49099;28.428;-16.488;2023-06-26T05:01:15;13.35;;;3.80;;
63008;SDS011;49099;28.428;-16.488;2023-06-26T05:03:42;14.60;;;3.72;;
63008;SDS011;49099;28.428;-16.488;2023-06-26T05:06:09;14.93;;;4.07;;
63008;SDS011;49099;28.428;-16.488;2023-06-26T05:08:37;18.67;;;4.38;;
63008;SDS011;49099;28.428;-16.488;2023-06-26T05:11:04;12.10;;;3.60;;
63008;SDS011;49099;28.428;-16.488;2023-06-26T05:13:31;9.98;;;3.35;;
63008;SDS011;49099;28.428;-16.488;2023-06-26T05:15:58;10.82;;;3.53;;
63008;SDS011;49099;28.428;-16.488;2023-06-26T05:18:25;10.10;;;3.42;;
63008;SDS011;49099;28.428;-16.488;2023-06-26T05:20:52;9.73;;;3.20;;
63008;SDS011;49099;28.428;-16.488;2023-06-26T05:23:20;12.73;;;3.58;;
63008;SDS011;49099;28.428;-16.488;2023-06-26T05:25:48;14.55;;;3.78;;
63008;SDS011;49099;28.428;-16.488;2023-06-26T05:28:16;14.40;;;4.25;;
63008;SDS011;49099;28.428;-16.488;2023-06-26T05:30:44;12.20;;;3.70;;
63008;SDS011;49099;28.428;-16.488;2023-06-26T05:33:11;9.55;;;3.60;;
63008;SDS011;49099;28.428;-16.488;2023-06-26T05:35:41;12.70;;;3.88;;
63008;SDS011;49099;28.428;-16.488;2023-06-26T05:38:11;13.32;;;3.80;;
63008;SDS011;49099;28.428;-16.488;2023-06-26T05:40:40;15.43;;;4.00;;
63008;SDS011;49099;28.428;-16.488;2023-06-26T05:43:07;12.40;;;3.78;;
63008;SDS011;49099;28.428;-16.488;2023-06-26T05:45:35;14.85;;;3.78;;
63008;SDS011;49099;28.428;-16.488;2023-06-26T05:48:02;12.63;;;4.55;;
63008;SDS011;49099;28.428;-16.488;2023-06-26T05:50:30;12.77;;;4.05;;
63008;SDS011;49099;28.428;-16.488;2023-06-26T05:52:57;15.05;;;4.30;;
63008;SDS011;49099;28.428;-16.488;2023-06-26T05:55:25;10.20;;;3.72;;
63008;SDS011;49099;28.428;-16.488;2023-06-26T05:57:52;13.20;;;4.10;;
63008;SDS011;49099;28.428;-16.488;2023-06-26T06:00:22;17.52;;;4.35;;
63008;SDS011;49099;28.428;-16.488;2023-06-26T06:02:50;18.67;;;4.18;;
63008;SDS011;49099;28.428;-16.488;2023-06-26T06:05:21;16.27;;;4.60;;
63008;SDS011;49099;28.428;-16.488;2023-06-26T06:07:49;12.45;;;4.25;;
63008;SDS011;49099;28.428;-16.488;2023-06-26T06:10:17;17.60;;;4.60;;
63008;SDS011;49099;28.428;-16.488;2023-06-26T06:12:44;12.18;;;3.88;;
63008;SDS011;49099;28.428;-16.488;2023-06-26T06:15:11;15.43;;;4.15;;
63008;SDS011;49099;28.428;-16.488;2023-06-26T06:17:38;13.35;;;4.30;;
63008;SDS011;49099;28.428;-16.488;2023-06-26T06:20:06;14.30;;;4.20;;
63008;SDS011;49099;28.428;-16.488;2023-06-26T06:22:33;15.85;;;4.00;;
63008;SDS011;49099;28.428;-16.488;2023-06-26T06:25:00;17.67;;;4.13;;
63008;SDS011;49099;28.428;-16.488;2023-06-26T06:27:28;16.60;;;5.32;;
63008;SDS011;49099;28.428;-16.488;2023-06-26T06:29:55;17.92;;;4.63;;
63008;SDS011;49099;28.428;-16.488;2023-06-26T06:32:22;16.52;;;4.95;;
63008;SDS011;49099;28.428;-16.488;2023-06-26T06:34:49;18.60;;;4.75;;
63008;SDS011;49099;28.428;-16.488;2023-06-26T06:37:16;14.27;;;4.40;;
63008;SDS011;49099;28.428;-16.488;2023-06-26T06:39:43;17.50;;;5.10;;
63008;SDS011;49099;28.428;-16.488;2023-06-26T06:42:11;13.52;;;3.90;;
63008;SDS011;49099;28.428;-16.488;2023-06-26T06:44:38;15.98;;;4.97;;
63008;SDS011;49099;28.428;-16.488;2023-06-26T06:47:05;12.80;;;4.40;;
63008;SDS011;49099;28.428;-16.488;2023-06-26T06:49:32;15.85;;;4.40;;
63008;SDS011;49099;28.428;-16.488;2023-06-26T06:51:59;16.25;;;4.97;;
63008;SDS011;49099;28.428;-16.488;2023-06-26T06:54:26;17.45;;;4.40;;
63008;SDS011;49099;28.428;-16.488;2023-06-26T06:56:55;14.55;;;4.80;;
63008;SDS011;49099;28.428;-16.488;2023-06-26T06:59:22;16.83;;;4.38;;
63008;SDS011;49099;28.428;-16.488;2023-06-26T07:01:49;15.90;;;4.70;;
63008;SDS011;49099;28.428;-16.488;2023-06-26T07:04:16;13.52;;;4.97;;
63008;SDS011;49099;28.428;-16.488;2023-06-26T07:06:44;16.58;;;4.72;;
63008;SDS011;49099;28.428;-16.488;2023-06-26T07:09:11;17.13;;;4.75;;
63008;SDS011;49099;28.428;-16.488;2023-06-26T07:11:38;19.52;;;5.30;;
63008;SDS011;49099;28.428;-16.488;2023-06-26T07:14:05;20.90;;;4.90;;
63008;SDS011;49099;28.428;-16.488;2023-06-26T07:16:32;19.52;;;5.10;;
63008;SDS011;49099;28.428;-16.488;2023-06-26T07:19:00;17.02;;;5.40;;
63008;SDS011;49099;28.428;-16.488;2023-06-26T07:21:27;13.95;;;4.57;;
63008;SDS011;49099;28.428;-16.488;2023-06-26T07:23:54;11.35;;;4.53;;
63008;SDS011;49099;28.428;-16.488;2023-06-26T07:26:21;14.90;;;4.35;;
63008;SDS011;49099;28.428;-16.488;2023-06-26T07:29:08;22.85;;;5.93;;
63008;SDS011;49099;28.428;-16.488;2023-06-26T07:31:35;20.35;;;5.38;;
63008;SDS011;49099;28.428;-16.488;2023-06-26T07:34:03;17.50;;;4.97;;
63008;SDS011;49099;28.428;-16.488;2023-06-26T07:36:30;15.85;;;5.30;;
63008;SDS011;49099;28.428;-16.488;2023-06-26T07:38:57;23.35;;;5.53;;
63008;SDS011;49099;28.428;-16.488;2023-06-26T07:41:24;21.73;;;5.32;;
63008;SDS011;49099;28.428;-16.488;2023-06-26T07:43:52;19.45;;;5.05;;
63008;SDS011;49099;28.428;-16.488;2023-06-26T07:46:19;16.95;;;4.90;;
63008;SDS011;49099;28.428;-16.488;2023-06-26T07:48:46;18.38;;;4.55;;
63008;SDS011;49099;28.428;-16.488;2023-06-26T07:51:13;15.73;;;4.75;;
63008;SDS011;49099;28.428;-16.488;2023-06-26T07:53:40;20.85;;;5.25;;
63008;SDS011;49099;28.428;-16.488;2023-06-26T07:56:08;14.20;;;4.50;;
63008;SDS011;49099;28.428;-16.488;2023-06-26T07:58:35;20.80;;;5.90;;
63008;SDS011;49099;28.428;-16.488;2023-06-26T08:01:04;22.67;;;5.45;;
63008;SDS011;49099;28.428;-16.488;2023-06-26T08:03:32;19.67;;;5.63;;
63008;SDS011;49099;28.428;-16.488;2023-06-26T08:06:01;21.67;;;5.30;;
63008;SDS011;49099;28.428;-16.488;2023-06-26T08:08:30;23.50;;;6.68;;
63008;SDS011;49099;28.428;-16.488;2023-06-26T08:10:57;20.48;;;5.97;;
63008;SDS011;49099;28.428;-16.488;2023-06-26T08:13:24;25.85;;;5.95;;
63008;SDS011;49099;28.428;-16.488;2023-06-26T08:15:52;21.33;;;5.20;;
63008;SDS011;49099;28.428;-16.488;2023-06-26T08:18:19;21.27;;;5.40;;
63008;SDS011;49099;28.428;-16.488;2023-06-26T08:20:46;16.10;;;5.05;;
63008;SDS011;49099;28.428;-16.488;2023-06-26T08:23:13;24.23;;;5.97;;
63008;SDS011;49099;28.428;-16.488;2023-06-26T08:25:40;21.02;;;5.38;;
63008;SDS011;49099;28.428;-16.488;2023-06-26T08:28:08;19.23;;;5.30;;
63008;SDS011;49099;28.428;-16.488;2023-06-26T08:30:35;16.70;;;4.93;;
63008;SDS011;49099;28.428;-16.488;2023-06-26T08:33:02;17.02;;;4.70;;
63008;SDS011;49099;28.428;-16.488;2023-06-26T08:35:30;19.40;;;5.05;;
63008;SDS011;49099;28.428;-16.488;2023-06-26T08:37:57;19.73;;;4.88;;
63008;SDS011;49099;28.428;-16.488;2023-06-26T08:40:24;19.08;;;4.40;;
63008;SDS011;49099;28.428;-16.488;2023-06-26T08:42:53;18.48;;;4.80;;
63008;SDS011;49099;28.428;-16.488;2023-06-26T08:45:21;17.27;;;4.80;;
63008;SDS011;49099;28.428;-16.488;2023-06-26T08:47:49;19.00;;;5.03;;
63008;SDS011;49099;28.428;-16.488;2023-06-26T08:50:20;19.55;;;5.80;;
63008;SDS011;49099;28.428;-16.488;2023-06-26T08:52:54;21.55;;;5.18;;
63008;SDS011;49099;28.428;-16.488;2023-06-26T08:55:28;18.35;;;4.70;;
63008;SDS011;49099;28.428;-16.488;2023-06-26T08:57:55;20.98;;;5.05;;
63008;SDS011;49099;28.428;-16.488;2023-06-26T09:00:23;15.95;;;4.82;;
63008;SDS011;49099;28.428;-16.488;2023-06-26T09:02:51;16.88;;;4.50;;
63008;SDS011;49099;28.428;-16.488;2023-06-26T09:05:19;21.48;;;5.10;;
63008;SDS011;49099;28.428;-16.488;2023-06-26T09:07:46;18.40;;;5.20;;
63008;SDS011;49099;28.428;-16.488;2023-06-26T09:10:13;15.32;;;4.88;;
63008;SDS011;49099;28.428;-16.488;2023-06-26T09:12:40;18.75;;;4.50;;
63008;SDS011;49099;28.428;-16.488;2023-06-26T09:15:08;18.48;;;4.45;;
63008;SDS011;49099;28.428;-16.488;2023-06-26T09:17:38;17.77;;;4.90;;
63008;SDS011;49099;28.428;-16.488;2023-06-26T09:20:09;16.50;;;4.75;;
63008;SDS011;49099;28.428;-16.488;2023-06-26T09:22:37;20.33;;;4.75;;
63008;SDS011;49099;28.428;-16.488;2023-06-26T09:25:05;20.48;;;5.28;;
63008;SDS011;49099;28.428;-16.488;2023-06-26T09:27:33;24.38;;;4.53;;
63008;SDS011;49099;28.428;-16.488;2023-06-26T09:30:05;23.15;;;5.47;;
63008;SDS011;49099;28.428;-16.488;2023-06-26T09:32:36;19.17;;;5.20;;
63008;SDS011;49099;28.428;-16.488;2023-06-26T09:35:04;21.80;;;5.30;;
63008;SDS011;49099;28.428;-16.488;2023-06-26T09:37:32;25.10;;;6.32;;
63008;SDS011;49099;28.428;-16.488;2023-06-26T09:39:59;20.67;;;5.30;;
63008;SDS011;49099;28.428;-16.488;2023-06-26T09:42:26;17.25;;;4.97;;
63008;SDS011;49099;28.428;-16.488;2023-06-26T09:44:53;13.63;;;4.60;;
63008;SDS011;49099;28.428;-16.488;2023-06-26T09:47:22;21.55;;;5.43;;
63008;SDS011;49099;28.428;-16.488;2023-06-26T09:49:51;25.60;;;6.18;;
63008;SDS011;49099;28.428;-16.488;2023-06-26T09:52:25;24.05;;;5.47;;
63008;SDS011;49099;28.428;-16.488;2023-06-26T09:55:06;32.42;;;6.60;;
63008;SDS011;49099;28.428;-16.488;2023-06-26T09:57:37;25.85;;;6.13;;
63008;SDS011;49099;28.428;-16.488;2023-06-26T10:00:05;27.70;;;6.47;;
63008;SDS011;49099;28.428;-16.488;2023-06-26T10:02:34;21.95;;;5.80;;
63008;SDS011;49099;28.428;-16.488;2023-06-26T10:05:02;28.70;;;6.68;;
63008;SDS011;49099;28.428;-16.488;2023-06-26T10:07:29;27.55;;;6.38;;
63008;SDS011;49099;28.428;-16.488;2023-06-26T10:09:57;26.85;;;5.93;;
63008;SDS011;49099;28.428;-16.488;2023-06-26T10:12:27;26.80;;;5.50;;
63008;SDS011;49099;28.428;-16.488;2023-06-26T10:14:57;25.23;;;6.25;;
63008;SDS011;49099;28.428;-16.488;2023-06-26T10:17:25;24.65;;;6.22;;
63008;SDS011;49099;28.428;-16.488;2023-06-26T10:19:56;31.05;;;6.72;;
63008;SDS011;49099;28.428;-16.488;2023-06-26T10:22:31;22.50;;;6.05;;
63008;SDS011;49099;28.428;-16.488;2023-06-26T10:25:06;27.50;;;6.03;;
63008;SDS011;49099;28.428;-16.488;2023-06-26T10:27:36;23.38;;;5.72;;
63008;SDS011;49099;28.428;-16.488;2023-06-26T10:30:09;28.55;;;6.00;;
63008;SDS011;49099;28.428;-16.488;2023-06-26T10:32:40;24.83;;;5.75;;
63008;SDS011;49099;28.428;-16.488;2023-06-26T10:35:08;29.65;;;6.63;;
63008;SDS011;49099;28.428;-16.488;2023-06-26T10:37:40;27.38;;;5.90;;
63008;SDS011;49099;28.428;-16.488;2023-06-26T10:40:12;23.33;;;5.40;;
63008;SDS011;49099;28.428;-16.488;2023-06-26T10:42:40;19.83;;;5.55;;
63008;SDS011;49099;28.428;-16.488;2023-06-26T10:45:13;25.30;;;5.95;;
63008;SDS011;49099;28.428;-16.488;2023-06-26T10:47:42;19.00;;;5.38;;
63008;SDS011;49099;28.428;-16.488;2023-06-26T10:50:23;22.83;;;5.78;;
63008;SDS011;49099;28.428;-16.488;2023-06-26T10:53:14;24.23;;;5.75;;
63008;SDS011;49099;28.428;-16.488;2023-06-26T10:56:02;20.00;;;5.68;;
63008;SDS011;49099;28.428;-16.488;2023-06-26T10:58:42;19.40;;;5.78;;
63008;SDS011;49099;28.428;-16.488;2023-06-26T11:03:39;29.70;;;5.90;;
63008;SDS011;49099;28.428;-16.488;2023-06-26T11:06:11;22.05;;;5.05;;
63008;SDS011;49099;28.428;-16.488;2023-06-26T11:11:16;25.80;;;5.75;;
63008;SDS011;49099;28.428;-16.488;2023-06-26T11:13:44;23.58;;;5.72;;
63008;SDS011;49099;28.428;-16.488;2023-06-26T11:16:13;26.25;;;5.82;;
63008;SDS011;49099;28.428;-16.488;2023-06-26T11:18:41;23.27;;;5.55;;
63008;SDS011;49099;28.428;-16.488;2023-06-26T11:21:09;20.83;;;5.80;;
63008;SDS011;49099;28.428;-16.488;2023-06-26T11:23:41;27.23;;;6.20;;
63008;SDS011;49099;28.428;-16.488;2023-06-26T11:26:14;24.17;;;6.32;;
63008;SDS011;49099;28.428;-16.488;2023-06-26T11:28:48;23.27;;;6.05;;
63008;SDS011;49099;28.428;-16.488;2023-06-26T11:31:32;23.95;;;6.05;;
63008;SDS011;49099;28.428;-16.488;2023-06-26T11:34:06;20.20;;;5.93;;
63008;SDS011;49099;28.428;-16.488;2023-06-26T11:36:41;22.77;;;5.68;;
63008;SDS011;49099;28.428;-16.488;2023-06-26T11:39:12;28.50;;;6.18;;
63008;SDS011;49099;28.428;-16.488;2023-06-26T11:41:39;22.48;;;6.00;;
63008;SDS011;49099;28.428;-16.488;2023-06-26T11:44:08;23.67;;;5.30;;
63008;SDS011;49099;28.428;-16.488;2023-06-26T11:46:40;20.92;;;5.20;;
63008;SDS011;49099;28.428;-16.488;2023-06-26T11:49:08;22.17;;;5.47;;
63008;SDS011;49099;28.428;-16.488;2023-06-26T11:51:35;29.67;;;5.95;;
63008;SDS011;49099;28.428;-16.488;2023-06-26T11:54:03;20.48;;;5.30;;
63008;SDS011;49099;28.428;-16.488;2023-06-26T11:56:31;20.88;;;5.38;;
63008;SDS011;49099;28.428;-16.488;2023-06-26T12:01:34;19.90;;;6.03;;
63008;SDS011;49099;28.428;-16.488;2023-06-26T12:04:04;25.13;;;6.10;;
63008;SDS011;49099;28.428;-16.488;2023-06-26T12:06:36;19.40;;;5.40;;
63008;SDS011;49099;28.428;-16.488;2023-06-26T12:09:09;22.13;;;5.45;;
63008;SDS011;49099;28.428;-16.488;2023-06-26T12:11:38;20.15;;;5.22;;
63008;SDS011;49099;28.428;-16.488;2023-06-26T12:14:07;25.65;;;5.90;;
63008;SDS011;49099;28.428;-16.488;2023-06-26T12:16:35;24.08;;;6.38;;
63008;SDS011;49099;28.428;-16.488;2023-06-26T12:19:04;24.42;;;5.70;;
63008;SDS011;49099;28.428;-16.488;2023-06-26T12:24:08;28.52;;;6.25;;
63008;SDS011;49099;28.428;-16.488;2023-06-26T12:26:37;20.90;;;5.47;;
63008;SDS011;49099;28.428;-16.488;2023-06-26T12:29:04;26.27;;;5.90;;
63008;SDS011;49099;28.428;-16.488;2023-06-26T12:31:33;25.23;;;6.13;;
63008;SDS011;49099;28.428;-16.488;2023-06-26T12:34:08;21.50;;;5.70;;
63008;SDS011;49099;28.428;-16.488;2023-06-26T12:36:45;23.90;;;6.80;;
63008;SDS011;49099;28.428;-16.488;2023-06-26T12:39:18;24.98;;;5.95;;
63008;SDS011;49099;28.428;-16.488;2023-06-26T12:41:52;21.77;;;5.40;;
63008;SDS011;49099;28.428;-16.488;2023-06-26T12:44:21;20.25;;;5.53;;
63008;SDS011;49099;28.428;-16.488;2023-06-26T12:46:58;18.48;;;5.43;;
63008;SDS011;49099;28.428;-16.488;2023-06-26T12:49:33;21.70;;;5.78;;
63008;SDS011;49099;28.428;-16.488;2023-06-26T12:52:03;23.08;;;5.88;;
63008;SDS011;49099;28.428;-16.488;2023-06-26T12:54:33;19.95;;;5.43;;
63008;SDS011;49099;28.428;-16.488;2023-06-26T12:57:01;30.08;;;6.50;;
63008;SDS011;49099;28.428;-16.488;2023-06-26T12:59:31;32.08;;;6.82;;
63008;SDS011;49099;28.428;-16.488;2023-06-26T13:01:59;29.52;;;6.13;;
63008;SDS011;49099;28.428;-16.488;2023-06-26T13:04:27;23.98;;;6.25;;
63008;SDS011;49099;28.428;-16.488;2023-06-26T13:06:55;28.40;;;6.10;;
63008;SDS011;49099;28.428;-16.488;2023-06-26T13:09:23;27.02;;;6.20;;
63008;SDS011;49099;28.428;-16.488;2023-06-26T13:11:52;22.25;;;5.97;;
63008;SDS011;49099;28.428;-16.488;2023-06-26T13:14:19;28.67;;;6.10;;
63008;SDS011;49099;28.428;-16.488;2023-06-26T13:16:46;21.20;;;5.13;;
63008;SDS011;49099;28.428;-16.488;2023-06-26T13:19:14;22.48;;;6.13;;
63008;SDS011;49099;28.428;-16.488;2023-06-26T13:21:41;24.20;;;5.65;;
63008;SDS011;49099;28.428;-16.488;2023-06-26T13:24:09;24.92;;;5.97;;
63008;SDS011;49099;28.428;-16.488;2023-06-26T13:26:36;23.27;;;5.90;;
63008;SDS011;49099;28.428;-16.488;2023-06-26T13:29:04;21.83;;;5.55;;
63008;SDS011;49099;28.428;-16.488;2023-06-26T13:31:32;21.30;;;5.40;;
63008;SDS011;49099;28.428;-16.488;2023-06-26T13:34:00;21.38;;;5.78;;
63008;SDS011;49099;28.428;-16.488;2023-06-26T13:36:30;21.63;;;5.47;;
63008;SDS011;49099;28.428;-16.488;2023-06-26T13:39:01;20.73;;;5.72;;
63008;SDS011;49099;28.428;-16.488;2023-06-26T13:41:29;24.30;;;5.97;;
63008;SDS011;49099;28.428;-16.488;2023-06-26T13:43:57;26.85;;;5.93;;
63008;SDS011;49099;28.428;-16.488;2023-06-26T13:46:44;24.67;;;5.97;;
63008;SDS011;49099;28.428;-16.488;2023-06-26T13:49:11;23.92;;;5.75;;
63008;SDS011;49099;28.428;-16.488;2023-06-26T13:51:38;19.88;;;5.13;;
63008;SDS011;49099;28.428;-16.488;2023-06-26T13:54:12;26.50;;;5.60;;
63008;SDS011;49099;28.428;-16.488;2023-06-26T13:56:39;22.80;;;6.10;;
63008;SDS011;49099;28.428;-16.488;2023-06-26T13:59:06;24.58;;;5.50;;
63008;SDS011;49099;28.428;-16.488;2023-06-26T14:01:34;20.70;;;5.63;;
63008;SDS011;49099;28.428;-16.488;2023-06-26T14:04:01;18.83;;;5.47;;
63008;SDS011;49099;28.428;-16.488;2023-06-26T14:06:28;26.77;;;5.53;;
63008;SDS011;49099;28.428;-16.488;2023-06-26T14:08:56;27.73;;;6.35;;
63008;SDS011;49099;28.428;-16.488;2023-06-26T14:11:23;26.38;;;5.53;;
63008;SDS011;49099;28.428;-16.488;2023-06-26T14:13:52;22.92;;;5.80;;
63008;SDS011;49099;28.428;-16.488;2023-06-26T14:16:19;27.45;;;6.20;;
63008;SDS011;49099;28.428;-16.488;2023-06-26T14:18:47;29.70;;;6.18;;
63008;SDS011;49099;28.428;-16.488;2023-06-26T14:21:14;25.83;;;5.88;;
63008;SDS011;49099;28.428;-16.488;2023-06-26T14:23:41;25.55;;;6.45;;
63008;SDS011;49099;28.428;-16.488;2023-06-26T14:26:09;24.45;;;6.15;;
63008;SDS011;49099;28.428;-16.488;2023-06-26T14:28:37;32.28;;;6.10;;
63008;SDS011;49099;28.428;-16.488;2023-06-26T14:31:05;23.98;;;6.07;;
63008;SDS011;49099;28.428;-16.488;2023-06-26T14:33:32;23.08;;;6.00;;
63008;SDS011;49099;28.428;-16.488;2023-06-26T14:35:59;19.88;;;5.63;;
63008;SDS011;49099;28.428;-16.488;2023-06-26T14:38:26;21.27;;;5.72;;